Time;durP1;ratioP1;P1;durP2;ratioP2;P2;SDS_P1;SDS_P2;PMS_P1;PMS_P2;Temp;Humidity;BMP_temperature;BMP_pressure;BME280_temperature;BME280_humidity;BME280_pressure;Samples;Min_cycle;Max_cycle;Signal;HPM_P1;HPM_P2
2021/08/01 00:00:52;;;;;;;14.02;8.68;;;14.20;93.70;;;;;;6247085;23;20008;-73
2021/08/01 00:03:18;;;;;;;12.70;7.80;;;14.20;93.30;;;;;;6222176;23;20098;-72
2021/08/01 00:05:45;;;;;;;13.60;9.23;;;14.10;93.40;;;;;;6248284;23;20274;-73
2021/08/01 00:08:11;;;;;;;11.18;8.55;;;14.20;93.00;;;;;;6248833;23;20006;-72
2021/08/01 00:10:37;;;;;;;13.23;9.07;;;14.10;93.40;;;;;;6248569;23;20004;-74
2021/08/01 00:13:03;;;;;;;13.35;7.78;;;14.00;93.30;;;;;;6249050;23;20349;-74
2021/08/01 00:15:29;;;;;;;12.48;7.93;;;13.90;92.90;;;;;;6247626;23;20004;-74
2021/08/01 00:17:54;;;;;;;13.35;8.63;;;13.90;93.20;;;;;;6222805;23;20009;-74
2021/08/01 00:20:20;;;;;;;12.02;8.18;;;13.90;93.40;;;;;;6248815;23;20008;-74
2021/08/01 00:22:46;;;;;;;11.45;7.70;;;13.80;93.40;;;;;;6249242;23;20041;-74
2021/08/01 00:25:12;;;;;;;10.93;7.28;;;13.70;93.70;;;;;;6249126;23;20310;-74
2021/08/01 00:27:38;;;;;;;16.77;8.10;;;13.70;93.60;;;;;;6248947;23;19996;-74
2021/08/01 00:30:07;;;;;;;20.92;10.55;;;13.70;93.70;;;;;;6221205;23;20420;-75
2021/08/01 00:32:33;;;;;;;11.93;8.50;;;13.60;94.20;;;;;;6248913;23;20008;-73
2021/08/01 00:34:58;;;;;;;14.50;8.20;;;13.60;94.10;;;;;;6249317;23;20354;-75
2021/08/01 00:37:24;;;;;;;13.70;8.00;;;13.60;94.00;;;;;;6248791;23;20011;-76
2021/08/01 00:39:53;;;;;;;14.60;7.88;;;13.50;94.70;;;;;;6248347;23;20008;-75
2021/08/01 00:42:19;;;;;;;12.85;7.25;;;13.50;94.20;;;;;;6249173;23;19996;-76
2021/08/01 00:44:45;;;;;;;12.13;8.15;;;13.40;95.10;;;;;;6220723;23;20066;-76
2021/08/01 00:47:12;;;;;;;14.75;7.88;;;13.40;94.90;;;;;;6249063;23;19996;-76
2021/08/01 00:49:38;;;;;;;13.43;8.13;;;13.40;94.60;;;;;;6249244;23;20000;-76
2021/08/01 00:52:11;;;;;;;13.43;7.65;;;13.40;94.60;;;;;;6222469;23;20011;-76
2021/08/01 00:54:37;;;;;;;11.43;7.63;;;13.40;94.30;;;;;;6249031;23;20023;-76
2021/08/01 00:57:04;;;;;;;14.00;8.25;;;13.30;95.00;;;;;;6222049;23;20004;-76
2021/08/01 00:59:40;;;;;;;15.50;7.68;;;13.20;94.70;;;;;;6247561;23;20000;-75
2021/08/01 01:02:12;;;;;;;16.60;8.45;;;13.20;94.60;;;;;;6222202;23;20004;-75
2021/08/01 01:05:02;;;;;;;13.60;6.93;;;13.20;94.30;;;;;;6247742;23;20082;-77
2021/08/01 01:07:48;;;;;;;12.90;7.60;;;13.20;94.30;;;;;;6250263;23;20260;-77
2021/08/01 01:10:34;;;;;;;11.82;7.50;;;13.20;94.40;;;;;;6250929;23;20004;-75
2021/08/01 01:13:10;;;;;;;10.40;7.03;;;13.10;94.20;;;;;;6250508;23;20008;-76
2021/08/01 01:15:44;;;;;;;12.05;7.70;;;13.10;94.20;;;;;;6222719;23;20409;-76
2021/08/01 01:18:12;;;;;;;;;;;13.10;94.10;;;;;;6251002;23;20004;-76
2021/08/01 01:21:06;;;;;;;10.35;6.00;;;13.10;94.00;;;;;;6250555;23;20272;-77
2021/08/01 01:24:01;;;;;;;11.32;7.18;;;13.10;93.80;;;;;;6250870;23;20055;-76
2021/08/01 01:26:54;;;;;;;8.30;5.38;;;13.10;93.90;;;;;;6249406;22;20004;-77
2021/08/01 01:29:28;;;;;;;9.95;4.90;;;13.00;94.80;;;;;;6222483;23;20066;-76
2021/08/01 01:32:05;;;;;;;5.13;2.80;;;12.90;95.00;;;;;;6250427;23;20373;-75
2021/08/01 01:34:36;;;;;;;5.40;3.25;;;12.70;96.00;;;;;;6224109;23;20011;-76
2021/08/01 01:37:11;;;;;;;15.68;3.65;;;12.50;96.30;;;;;;6250536;23;20247;-76
2021/08/01 01:39:38;;;;;;;;;;;12.50;96.00;;;;;;6247466;23;20251;-75
2021/08/01 01:42:05;;;;;;;14.15;6.22;;;12.50;95.80;;;;;;6249083;23;20280;-77
2021/08/01 01:44:33;;;;;;;10.65;5.68;;;12.60;95.50;;;;;;6246636;23;20016;-76
2021/08/01 01:46:59;;;;;;;10.73;5.40;;;12.70;95.20;;;;;;6222367;23;20032;-75
2021/08/01 01:49:25;;;;;;;9.80;5.47;;;12.70;95.00;;;;;;6248488;23;20058;-76
2021/08/01 01:51:53;;;;;;;10.02;5.07;;;12.70;95.10;;;;;;6248577;23;20108;-75
2021/08/01 01:54:18;;;;;;;8.18;5.05;;;12.70;94.90;;;;;;6248134;23;20011;-74
2021/08/01 01:56:44;;;;;;;7.43;5.13;;;12.60;94.80;;;;;;6248210;23;20114;-75
2021/08/01 01:59:12;;;;;;;8.27;4.93;;;12.60;94.70;;;;;;6219941;23;20015;-75
2021/08/01 02:01:39;;;;;;;9.50;4.93;;;12.60;94.60;;;;;;6248049;23;20305;-77
2021/08/01 02:04:05;;;;;;;8.95;4.63;;;12.60;94.40;;;;;;6248285;23;20358;-76
2021/08/01 02:06:32;;;;;;;10.20;4.25;;;12.60;94.70;;;;;;6248154;23;20306;-76
2021/08/01 02:09:03;;;;;;;6.68;3.75;;;12.50;94.50;;;;;;6248909;23;20000;-76
2021/08/01 02:11:54;;;;;;;7.40;4.13;;;12.40;94.50;;;;;;6247948;23;20004;-76
2021/08/01 02:14:27;;;;;;;6.18;4.22;;;12.40;94.00;;;;;;6246971;23;20004;-76
2021/08/01 02:17:03;;;;;;;6.97;3.83;;;12.40;94.10;;;;;;6247915;23;20079;-76
2021/08/01 02:19:31;;;;;;;9.68;4.65;;;12.30;94.20;;;;;;6247783;23;20014;-76
2021/08/01 02:21:57;;;;;;;6.60;4.40;;;12.30;94.00;;;;;;6248515;23;20000;-76
2021/08/01 02:24:23;;;;;;;6.40;4.03;;;12.30;93.80;;;;;;6247611;23;20380;-77
2021/08/01 02:26:50;;;;;;;8.75;4.68;;;12.40;93.70;;;;;;6221485;23;20000;-76
2021/08/01 02:29:17;;;;;;;9.77;5.18;;;12.40;93.50;;;;;;6246819;23;20049;-76
2021/08/01 02:31:43;;;;;;;7.55;3.95;;;12.30;93.80;;;;;;6248561;23;20397;-76
2021/08/01 02:34:09;;;;;;;9.10;5.13;;;12.20;93.60;;;;;;6248359;23;20018;-76
2021/08/01 02:36:36;;;;;;;10.23;5.22;;;12.20;93.50;;;;;;6221273;23;20463;-76
2021/08/01 02:39:02;;;;;;;11.13;4.32;;;12.20;93.20;;;;;;6247797;23;20044;-75
2021/08/01 02:41:38;;;;;;;17.83;6.00;;;12.30;93.10;;;;;;6247854;23;20000;-76
2021/08/01 02:44:22;;;;;;;9.48;4.60;;;12.30;93.30;;;;;;6215822;23;20282;-76
2021/08/01 02:46:48;;;;;;;7.07;4.15;;;12.30;93.20;;;;;;6216650;23;20012;-77
2021/08/01 02:49:19;;;;;;;10.07;4.47;;;12.30;92.90;;;;;;6217228;23;20051;-76
2021/08/01 02:51:52;;;;;;;8.05;4.68;;;12.30;93.20;;;;;;6215938;23;20013;-76
2021/08/01 02:54:20;;;;;;;8.63;4.55;;;12.30;93.20;;;;;;6216103;23;20016;-76
2021/08/01 02:56:48;;;;;;;8.98;4.53;;;12.20;93.10;;;;;;6217747;23;20108;-76
2021/08/01 02:59:15;;;;;;;11.02;5.05;;;12.30;92.90;;;;;;6216083;23;20000;-76
2021/08/01 03:01:42;;;;;;;8.30;5.10;;;12.20;93.10;;;;;;6217585;23;20000;-75
2021/08/01 03:04:08;;;;;;;7.20;4.70;;;12.20;93.10;;;;;;6217959;23;20004;-75
2021/08/01 03:06:35;;;;;;;8.52;4.95;;;12.20;93.20;;;;;;6217348;23;20001;-76
2021/08/01 03:09:04;;;;;;;11.70;4.70;;;12.10;93.50;;;;;;6216249;23;20027;-77
2021/08/01 03:11:34;;;;;;;6.20;4.15;;;12.00;93.30;;;;;;6217412;23;20004;-76
2021/08/01 03:14:01;;;;;;;8.57;4.18;;;12.10;92.90;;;;;;6216257;23;20004;-76
2021/08/01 03:16:27;;;;;;;8.95;4.55;;;12.10;93.00;;;;;;6216249;23;20000;-76
2021/08/01 03:18:52;;;;;;;9.25;4.57;;;12.10;92.90;;;;;;6217158;23;20012;-76
2021/08/01 03:21:18;;;;;;;7.50;4.55;;;12.10;93.20;;;;;;6217011;23;20270;-76
2021/08/01 03:23:44;;;;;;;11.13;5.53;;;12.00;93.30;;;;;;6217310;23;20370;-75
2021/08/01 03:26:09;;;;;;;12.25;4.90;;;12.00;93.00;;;;;;6217414;23;20375;-75
2021/08/01 03:28:35;;;;;;;8.68;4.60;;;12.00;92.90;;;;;;6216656;23;20008;-75
2021/08/01 03:31:01;;;;;;;6.68;4.07;;;12.10;92.80;;;;;;6215663;23;20004;-75
2021/08/01 03:33:26;;;;;;;9.75;4.82;;;12.10;92.70;;;;;;6217129;23;20051;-75
2021/08/01 03:35:52;;;;;;;12.13;4.75;;;12.10;92.90;;;;;;6216687;23;20270;-76
2021/08/01 03:38:18;;;;;;;7.38;4.28;;;12.10;92.80;;;;;;6217006;23;20278;-74
2021/08/01 03:40:44;;;;;;;6.38;3.97;;;12.10;93.00;;;;;;6217068;23;20309;-75
2021/08/01 03:43:09;;;;;;;8.50;4.35;;;12.10;93.00;;;;;;6219007;23;20358;-75
2021/08/01 03:45:35;;;;;;;8.75;4.90;;;12.10;93.10;;;;;;6219208;23;20109;-75
2021/08/01 03:48:01;;;;;;;6.97;4.00;;;12.10;93.00;;;;;;6247397;23;20446;-75
2021/08/01 03:50:26;;;;;;;6.97;4.47;;;12.10;93.20;;;;;;6246808;23;20008;-75
2021/08/01 03:52:52;;;;;;;10.40;4.47;;;12.10;92.70;;;;;;6247861;23;20004;-75
2021/08/01 03:55:17;;;;;;;8.65;4.32;;;12.10;93.20;;;;;;6247292;23;20008;-75
2021/08/01 03:57:43;;;;;;;7.43;4.72;;;12.10;93.20;;;;;;6220781;23;20015;-76
2021/08/01 04:00:12;;;;;;;7.70;4.90;;;12.10;93.00;;;;;;6245328;23;20070;-76
2021/08/01 04:02:38;;;;;;;10.65;4.95;;;12.10;92.90;;;;;;6246858;23;20000;-76
2021/08/01 04:05:05;;;;;;;7.97;4.85;;;12.10;93.10;;;;;;6247448;23;19997;-76
2021/08/01 04:07:31;;;;;;;10.43;5.50;;;12.10;93.00;;;;;;6246591;23;20003;-76
2021/08/01 04:09:56;;;;;;;11.43;5.97;;;12.10;93.00;;;;;;6220818;23;20012;-75
2021/08/01 04:12:22;;;;;;;14.27;6.07;;;12.10;92.80;;;;;;6247254;23;20058;-75
2021/08/01 04:14:48;;;;;;;10.10;5.82;;;12.20;92.80;;;;;;6245454;23;20305;-75
2021/08/01 04:17:18;;;;;;;11.45;5.40;;;12.20;92.90;;;;;;6247173;23;20012;-74
2021/08/01 04:19:46;;;;;;;12.73;5.28;;;12.20;92.80;;;;;;6220640;23;20246;-76
2021/08/01 04:22:16;;;;;;;7.90;5.30;;;12.20;92.60;;;;;;6220783;23;20008;-75
2021/08/01 04:24:41;;;;;;;9.02;5.00;;;12.30;92.50;;;;;;6247376;23;20001;-75
2021/08/01 04:27:07;;;;;;;9.77;5.78;;;12.30;92.60;;;;;;6220617;23;20251;-75
2021/08/01 04:29:33;;;;;;;8.82;5.10;;;12.30;92.60;;;;;;6245293;23;20083;-74
2021/08/01 04:31:59;;;;;;;7.85;4.53;;;12.30;92.60;;;;;;6247728;23;20000;-76
2021/08/01 04:34:25;;;;;;;10.38;4.72;;;12.20;92.70;;;;;;6247037;23;20000;-75
2021/08/01 04:36:53;;;;;;;9.15;5.03;;;12.30;92.40;;;;;;6247426;23;20011;-75
2021/08/01 04:39:19;;;;;;;11.30;6.10;;;12.30;92.50;;;;;;6246896;23;20419;-74
2021/08/01 04:41:45;;;;;;;10.68;5.22;;;12.30;92.40;;;;;;6221291;23;20005;-75
2021/08/01 04:44:10;;;;;;;12.75;5.80;;;12.40;92.40;;;;;;6247954;23;20039;-75
2021/08/01 04:46:37;;;;;;;8.43;4.80;;;12.40;92.60;;;;;;6222529;23;20008;-75
2021/08/01 04:49:03;;;;;;;12.13;6.40;;;12.40;92.50;;;;;;6249516;23;20022;-76
2021/08/01 04:51:28;;;;;;;7.95;5.55;;;12.40;92.40;;;;;;6221989;23;20086;-75
2021/08/01 04:53:54;;;;;;;9.63;5.30;;;12.50;92.20;;;;;;6249675;23;20007;-75
2021/08/01 04:56:20;;;;;;;9.85;5.30;;;12.60;92.30;;;;;;6222124;23;20094;-75
2021/08/01 04:58:45;;;;;;;8.88;5.00;;;12.60;92.70;;;;;;6248904;23;20015;-74
2021/08/01 05:01:15;;;;;;;9.13;5.82;;;12.60;92.90;;;;;;6246763;23;20269;-74
2021/08/01 05:03:41;;;;;;;9.20;5.57;;;12.60;92.90;;;;;;6248437;23;20004;-74
2021/08/01 05:06:08;;;;;;;7.43;5.05;;;12.60;93.30;;;;;;6249002;23;20091;-75
2021/08/01 05:08:34;;;;;;;7.82;5.65;;;12.60;92.90;;;;;;6222200;23;20066;-75
2021/08/01 05:11:00;;;;;;;10.18;5.60;;;12.70;92.70;;;;;;6248889;23;20004;-74
2021/08/01 05:13:26;;;;;;;9.00;5.47;;;12.80;92.70;;;;;;6248439;23;20035;-74
2021/08/01 05:15:51;;;;;;;8.98;5.72;;;12.90;92.60;;;;;;6246850;23;20004;-74
2021/08/01 05:18:17;;;;;;;10.10;6.05;;;12.90;93.00;;;;;;6247523;23;20004;-75
2021/08/01 05:20:44;;;;;;;7.35;4.75;;;12.90;92.90;;;;;;6247835;23;20269;-73
2021/08/01 05:23:10;;;;;;;10.88;5.00;;;12.90;93.00;;;;;;6248107;23;20370;-75
2021/08/01 05:25:36;;;;;;;8.18;5.50;;;12.90;93.00;;;;;;6247661;23;20004;-75
2021/08/01 05:28:02;;;;;;;11.40;4.82;;;13.00;92.90;;;;;;6248789;23;20015;-74
2021/08/01 05:30:28;;;;;;;9.77;5.57;;;13.10;92.60;;;;;;6247234;23;20075;-74
2021/08/01 05:32:54;;;;;;;8.98;5.10;;;13.10;93.40;;;;;;6248161;23;20031;-75
2021/08/01 05:35:20;;;;;;;9.82;4.85;;;13.20;93.00;;;;;;6247461;23;20000;-75
2021/08/01 05:37:45;;;;;;;7.53;4.93;;;13.30;94.20;;;;;;6247995;23;20011;-74
2021/08/01 05:40:12;;;;;;;11.02;5.72;;;13.30;93.90;;;;;;6222243;23;20451;-74
2021/08/01 05:42:38;;;;;;;7.97;5.85;;;13.40;94.30;;;;;;6248613;23;20009;-74
2021/08/01 05:45:05;;;;;;;7.85;4.63;;;13.50;94.30;;;;;;6247783;23;20091;-74
2021/08/01 05:47:30;;;;;;;10.02;5.22;;;13.40;95.20;;;;;;6248493;23;20339;-74
2021/08/01 05:49:56;;;;;;;8.48;4.97;;;13.40;95.20;;;;;;6249014;23;20000;-74
2021/08/01 05:52:22;;;;;;;8.00;5.10;;;13.40;95.10;;;;;;6247916;23;20004;-74
2021/08/01 05:54:48;;;;;;;9.65;5.63;;;13.50;95.70;;;;;;6249229;23;20008;-74
2021/08/01 05:57:14;;;;;;;9.73;5.00;;;13.40;96.40;;;;;;6249005;23;20011;-74
2021/08/01 05:59:39;;;;;;;9.45;5.28;;;13.50;95.90;;;;;;6246670;23;20000;-74
2021/08/01 06:02:05;;;;;;;7.50;5.55;;;13.60;95.70;;;;;;6248531;23;20361;-74
2021/08/01 06:04:30;;;;;;;11.57;5.70;;;13.60;96.10;;;;;;6248256;23;20027;-74
2021/08/01 06:06:56;;;;;;;9.07;5.20;;;13.60;96.10;;;;;;6249067;23;20003;-74
2021/08/01 06:09:22;;;;;;;10.57;5.38;;;13.60;96.80;;;;;;6248353;23;20265;-75
2021/08/01 06:11:48;;;;;;;8.95;4.65;;;13.60;97.00;;;;;;6248761;23;20007;-74
2021/08/01 06:14:13;;;;;;;7.65;4.70;;;13.60;97.40;;;;;;6247621;23;20004;-74
2021/08/01 06:16:39;;;;;;;12.90;5.13;;;13.60;97.60;;;;;;6248106;23;20004;-74
2021/08/01 06:19:05;;;;;;;8.10;4.32;;;13.70;97.30;;;;;;6222510;23;20247;-74
2021/08/01 06:21:30;;;;;;;8.20;4.93;;;13.80;97.30;;;;;;6248093;23;20000;-74
2021/08/01 06:23:57;;;;;;;10.70;5.10;;;13.90;97.50;;;;;;6248461;23;20010;-74
2021/08/01 06:26:23;;;;;;;8.20;5.15;;;13.90;97.90;;;;;;6221693;23;20103;-74
2021/08/01 06:28:51;;;;;;;9.05;5.65;;;14.00;97.60;;;;;;6248825;23;20082;-74
2021/08/01 06:31:17;;;;;;;8.30;5.00;;;14.00;97.80;;;;;;6247120;23;20127;-75
2021/08/01 06:33:43;;;;;;;7.55;5.00;;;13.90;98.00;;;;;;6248544;23;20031;-74
2021/08/01 06:36:14;;;;;;;10.23;5.13;;;13.90;98.00;;;;;;6248808;23;20015;-75
2021/08/01 06:38:40;;;;;;;14.43;5.18;;;14.00;97.90;;;;;;6248014;23;20024;-74
2021/08/01 06:41:10;;;;;;;10.13;5.03;;;14.10;98.00;;;;;;6222011;23;20397;-74
2021/08/01 06:43:36;;;;;;;7.40;4.78;;;14.20;98.00;;;;;;6221025;23;20070;-73
2021/08/01 06:46:02;;;;;;;8.27;5.43;;;14.00;98.00;;;;;;6247351;23;20038;-73
2021/08/01 06:48:28;;;;;;;9.32;5.13;;;14.10;98.00;;;;;;6247981;23;19996;-75
2021/08/01 06:51:02;;;;;;;7.53;4.50;;;14.00;98.00;;;;;;6248622;23;20087;-74
2021/08/01 06:53:28;;;;;;;9.65;5.20;;;14.00;98.00;;;;;;6247791;23;20362;-76
2021/08/01 06:55:53;;;;;;;9.02;5.43;;;13.90;98.00;;;;;;6248084;23;20000;-75
2021/08/01 06:58:20;;;;;;;8.32;5.20;;;13.90;98.00;;;;;;6247915;23;20086;-75
2021/08/01 07:00:50;;;;;;;12.10;5.95;;;13.80;98.00;;;;;;6220252;23;20421;-74
2021/08/01 07:03:17;;;;;;;9.02;4.80;;;13.80;98.00;;;;;;6248416;23;20003;-74
2021/08/01 07:05:43;;;;;;;8.80;5.55;;;13.70;98.00;;;;;;6247936;23;20385;-74
2021/08/01 07:08:12;;;;;;;8.45;4.70;;;13.80;98.00;;;;;;6221972;23;20304;-74
2021/08/01 07:10:38;;;;;;;8.63;5.60;;;13.90;98.00;;;;;;6248014;23;20307;-74
2021/08/01 07:13:05;;;;;;;11.38;6.18;;;13.90;98.00;;;;;;6248361;23;20078;-74
2021/08/01 07:15:31;;;;;;;9.00;5.35;;;13.90;98.00;;;;;;6246485;23;20008;-74
2021/08/01 07:17:58;;;;;;;10.00;6.03;;;13.90;98.00;;;;;;6248363;23;20003;-74
2021/08/01 07:20:24;;;;;;;8.07;5.30;;;13.90;98.00;;;;;;6247071;23;20058;-74
2021/08/01 07:22:51;;;;;;;8.20;5.82;;;14.00;98.00;;;;;;6248283;23;20004;-74
2021/08/01 07:25:17;;;;;;;8.32;5.55;;;13.90;98.00;;;;;;6221788;23;20004;-74
2021/08/01 07:27:43;;;;;;;11.10;5.60;;;13.90;98.00;;;;;;6247612;23;20027;-74
2021/08/01 07:30:09;;;;;;;9.68;6.43;;;13.90;98.00;;;;;;6220188;23;20004;-74
2021/08/01 07:32:35;;;;;;;12.05;5.97;;;13.90;98.00;;;;;;6247425;23;20008;-74
2021/08/01 07:35:00;;;;;;;12.32;5.95;;;13.90;98.00;;;;;;6247728;23;20376;-74
2021/08/01 07:37:26;;;;;;;10.15;6.40;;;14.00;98.00;;;;;;6247447;23;20000;-73
2021/08/01 07:39:52;;;;;;;10.35;6.72;;;14.10;98.00;;;;;;6247779;23;20014;-74
2021/08/01 07:42:17;;;;;;;13.15;6.43;;;14.10;98.00;;;;;;6221021;23;19996;-74
2021/08/01 07:44:50;;;;;;;10.15;5.97;;;14.20;98.00;;;;;;6245952;23;20050;-74
2021/08/01 07:47:17;;;;;;;7.90;5.30;;;14.20;98.00;;;;;;6248219;23;20000;-74
2021/08/01 07:49:44;;;;;;;7.63;4.95;;;14.20;98.00;;;;;;6220560;23;20020;-74
2021/08/01 07:52:09;;;;;;;10.45;6.28;;;14.30;98.00;;;;;;6248253;23;20000;-74
2021/08/01 07:54:35;;;;;;;8.90;5.95;;;14.30;98.00;;;;;;6246718;23;20123;-74
2021/08/01 07:57:01;;;;;;;8.30;4.80;;;14.40;98.00;;;;;;6248163;23;20074;-74
2021/08/01 07:59:26;;;;;;;8.80;5.53;;;14.50;98.00;;;;;;6245629;23;20035;-74
2021/08/01 08:01:52;;;;;;;7.15;4.65;;;14.60;98.00;;;;;;6247475;23;20051;-74
2021/08/01 08:04:18;;;;;;;8.80;4.75;;;14.60;98.00;;;;;;6247553;23;20004;-74
2021/08/01 08:06:43;;;;;;;6.95;4.78;;;14.60;98.00;;;;;;6221076;23;20000;-74
2021/08/01 08:09:09;;;;;;;9.90;4.55;;;14.60;98.00;;;;;;6248086;23;20023;-74
2021/08/01 08:11:35;;;;;;;5.82;3.90;;;14.60;98.00;;;;;;6247507;23;20000;-74
2021/08/01 08:14:00;;;;;;;8.23;4.35;;;14.80;98.00;;;;;;6247820;23;20008;-74
2021/08/01 08:16:26;;;;;;;8.63;4.88;;;14.90;98.00;;;;;;6246660;23;20005;-74
2021/08/01 08:18:51;;;;;;;9.18;4.95;;;14.90;98.00;;;;;;6250063;23;20000;-74
2021/08/01 08:21:18;;;;;;;6.50;4.18;;;14.90;98.00;;;;;;6249636;23;20005;-74
2021/08/01 08:23:44;;;;;;;9.85;5.10;;;14.70;98.00;;;;;;6249969;23;20392;-74
2021/08/01 08:26:10;;;;;;;8.25;5.18;;;14.70;98.00;;;;;;6250026;23;20001;-74
2021/08/01 08:28:36;;;;;;;10.40;4.63;;;14.70;98.00;;;;;;6249139;23;20035;-74
2021/08/01 08:31:02;;;;;;;13.50;6.50;;;14.80;98.00;;;;;;6248065;23;20000;-74
2021/08/01 08:33:27;;;;;;;14.13;7.18;;;14.70;98.00;;;;;;6222221;23;20632;-74
2021/08/01 08:35:53;;;;;;;8.63;5.25;;;14.60;98.00;;;;;;6222924;23;20008;-74
2021/08/01 08:38:19;;;;;;;10.70;6.35;;;14.60;98.00;;;;;;6249557;23;20007;-74
2021/08/01 08:40:45;;;;;;;10.05;6.38;;;14.50;98.00;;;;;;6249923;23;20004;-74
2021/08/01 08:43:10;;;;;;;12.93;6.78;;;14.40;98.00;;;;;;6249448;23;19996;-74
2021/08/01 08:45:37;;;;;;;9.93;6.10;;;14.40;98.00;;;;;;6246921;23;20008;-74
2021/08/01 08:48:05;;;;;;;11.43;6.97;;;14.40;98.00;;;;;;6249626;23;20000;-73
2021/08/01 08:50:33;;;;;;;9.82;6.65;;;14.40;98.00;;;;;;6248734;23;20004;-73
2021/08/01 08:53:04;;;;;;;11.85;6.82;;;14.40;98.00;;;;;;6249300;23;20004;-73
2021/08/01 08:55:35;;;;;;;17.95;6.63;;;14.50;98.00;;;;;;6248402;23;20000;-74
2021/08/01 08:58:05;;;;;;;8.75;5.95;;;14.50;98.00;;;;;;6249483;23;20073;-73
2021/08/01 09:00:32;;;;;;;10.43;6.72;;;14.50;98.00;;;;;;6246326;23;20377;-73
2021/08/01 09:02:58;;;;;;;11.55;6.78;;;14.40;98.00;;;;;;6249495;23;19996;-73
2021/08/01 09:05:24;;;;;;;9.23;6.05;;;14.40;98.00;;;;;;6248890;23;20046;-73
2021/08/01 09:07:50;;;;;;;9.80;6.32;;;14.50;98.00;;;;;;6249480;23;20075;-73
2021/08/01 09:10:16;;;;;;;9.65;6.53;;;14.60;98.00;;;;;;6249091;23;20028;-73
2021/08/01 09:12:48;;;;;;;10.45;7.00;;;14.60;98.00;;;;;;6248575;23;20007;-74
2021/08/01 09:15:13;;;;;;;10.52;5.70;;;14.60;98.00;;;;;;6248034;23;20077;-74
2021/08/01 09:17:43;;;;;;;7.63;5.45;;;14.60;98.00;;;;;;6248882;23;20034;-74
2021/08/01 09:20:13;;;;;;;8.93;5.72;;;14.60;98.00;;;;;;6249734;23;20102;-74
2021/08/01 09:22:42;;;;;;;11.23;5.78;;;14.60;98.00;;;;;;6248699;23;20042;-74
2021/08/01 09:25:20;;;;;;;15.18;7.18;;;14.70;98.00;;;;;;6249379;23;20024;-74
2021/08/01 09:27:46;;;;;;;11.27;5.47;;;15.00;98.00;;;;;;6249197;23;20020;-74
2021/08/01 09:30:12;;;;;;;8.23;5.40;;;15.30;98.00;;;;;;6247582;23;20384;-74
2021/08/01 09:32:49;;;;;;;9.85;5.28;;;15.30;98.00;;;;;;6248888;23;20083;-74
2021/08/01 09:35:21;;;;;;;9.18;4.82;;;15.20;98.00;;;;;;6249457;23;20269;-74
2021/08/01 09:37:58;;;;;;;9.73;4.72;;;15.20;98.00;;;;;;6249038;23;20008;-73
2021/08/01 09:40:29;;;;;;;8.63;5.50;;;15.30;98.00;;;;;;6248393;23;20078;-74
2021/08/01 09:43:07;;;;;;;9.63;5.82;;;15.30;98.00;;;;;;6248684;23;19997;-73
2021/08/01 09:45:32;;;;;;;8.38;5.35;;;15.20;98.00;;;;;;6246280;23;20009;-74
2021/08/01 09:48:17;;;;;;;8.70;5.30;;;15.20;98.00;;;;;;6222440;23;20011;-75
2021/08/01 09:51:12;;;;;;;;;;;15.30;98.00;;;;;;6249213;23;20004;-76
2021/08/01 09:53:41;;;;;;;9.63;5.15;;;15.30;98.00;;;;;;6208611;23;19907;-74
2021/08/01 09:56:17;;;;;;;8.98;5.28;;;15.30;98.00;;;;;;6248757;23;20004;-74
2021/08/01 09:58:44;;;;;;;9.20;5.07;;;15.40;98.00;;;;;;6248303;23;20000;-74
2021/08/01 10:01:10;;;;;;;9.70;5.40;;;15.30;98.00;;;;;;6220796;23;20079;-74
2021/08/01 10:03:41;;;;;;;7.88;5.00;;;15.50;98.00;;;;;;6248509;23;20027;-74
2021/08/01 10:06:19;;;;;;;13.82;5.38;;;15.80;98.00;;;;;;6249108;23;19992;-74
2021/08/01 10:08:47;;;;;;;9.52;4.93;;;16.00;98.00;;;;;;6248663;23;20027;-73
2021/08/01 10:11:21;;;;;;;10.88;4.78;;;16.10;98.00;;;;;;6249012;23;20071;-74
2021/08/01 10:13:50;;;;;;;7.72;4.40;;;16.20;98.00;;;;;;6248869;23;20026;-74
2021/08/01 10:16:17;;;;;;;6.68;4.38;;;16.30;98.00;;;;;;6247221;23;20265;-74
2021/08/01 10:18:45;;;;;;;10.18;4.88;;;16.20;97.80;;;;;;6248312;23;20008;-74
2021/08/01 10:21:15;;;;;;;9.00;5.10;;;16.30;98.00;;;;;;6249055;23;20000;-73
2021/08/01 10:23:45;;;;;;;9.45;4.93;;;16.50;98.00;;;;;;6221342;23;20024;-73
2021/08/01 10:26:13;;;;;;;6.78;4.53;;;16.30;98.00;;;;;;6248515;23;20001;-74
2021/08/01 10:28:50;;;;;;;11.18;5.10;;;16.00;98.00;;;;;;6248255;23;20000;-73
2021/08/01 10:31:40;;;;;;;11.23;5.32;;;16.00;98.00;;;;;;6247220;23;20008;-73
2021/08/01 10:34:19;;;;;;;9.15;5.78;;;16.20;98.00;;;;;;6227257;23;20053;-73
2021/08/01 10:36:51;;;;;;;8.48;5.05;;;16.40;98.00;;;;;;6247639;23;19996;-73
2021/08/01 10:39:20;;;;;;;7.32;4.75;;;16.60;98.00;;;;;;6221090;23;20015;-73
2021/08/01 10:41:47;;;;;;;9.63;4.80;;;16.60;98.00;;;;;;6248234;23;20019;-73
2021/08/01 10:44:13;;;;;;;7.40;4.28;;;16.60;98.00;;;;;;6243352;23;20020;-73
2021/08/01 10:46:40;;;;;;;9.15;4.30;;;16.70;98.00;;;;;;6243872;23;20271;-73
2021/08/01 10:49:09;;;;;;;8.93;4.47;;;16.80;97.90;;;;;;6244985;23;20274;-73
2021/08/01 10:51:35;;;;;;;6.97;3.83;;;17.10;97.90;;;;;;6244558;23;20014;-73
2021/08/01 10:54:19;;;;;;;10.07;3.92;;;17.60;97.30;;;;;;6245176;23;19997;-73
2021/08/01 10:56:45;;;;;;;6.00;3.50;;;17.80;96.70;;;;;;6244427;23;20008;-73
2021/08/01 10:59:48;;;;;;;5.32;3.30;;;18.40;95.60;;;;;;6243865;23;20012;-73
2021/08/01 11:02:17;;;;;;;5.35;3.55;;;18.50;93.70;;;;;;6218078;23;20012;-73
2021/08/01 11:04:46;;;;;;;9.35;3.75;;;18.40;93.70;;;;;;6244951;23;20075;-73
2021/08/01 11:07:12;;;;;;;5.60;3.50;;;18.40;94.40;;;;;;6244536;23;20004;-73
2021/08/01 11:09:38;;;;;;;5.22;2.97;;;18.40;94.80;;;;;;6244058;23;20402;-74
2021/08/01 11:12:19;;;;;;;6.63;3.25;;;18.60;94.30;;;;;;6244267;23;20087;-73
2021/08/01 11:14:53;;;;;;;5.80;3.03;;;18.50;93.70;;;;;;6242944;23;20004;-73
2021/08/01 11:17:20;;;;;;;;;;;18.30;93.60;;;;;;6244858;23;20058;-73
2021/08/01 11:19:47;;;;;;;6.53;3.08;;;18.10;93.90;;;;;;6244165;23;19990;-74
2021/08/01 11:22:45;;;;;;;6.55;3.30;;;17.90;93.40;;;;;;6244716;23;20376;-73
2021/08/01 11:25:24;;;;;;;8.25;3.40;;;17.90;94.50;;;;;;6152612;23;20004;-73
2021/08/01 11:28:11;;;;;;;7.95;3.70;;;18.30;93.20;;;;;;6217873;23;20083;-73
2021/08/01 11:31:00;;;;;;;7.35;3.40;;;19.00;92.80;;;;;;6216232;23;20316;-73
2021/08/01 11:33:39;;;;;;;5.50;3.08;;;19.10;92.50;;;;;;6243669;23;20004;-73
2021/08/01 11:36:10;;;;;;;5.40;3.22;;;19.60;90.90;;;;;;6244477;23;20086;-73
2021/08/01 11:38:48;;;;;;;6.68;4.03;;;19.90;89.20;;;;;;6244223;23;20054;-73
2021/08/01 11:41:25;;;;;;;7.53;3.88;;;19.40;92.40;;;;;;6244456;23;20058;-73
2021/08/01 11:44:15;;;;;;;5.90;3.63;;;19.50;93.10;;;;;;6244076;23;20285;-73
2021/08/01 11:46:59;;;;;;;7.28;4.00;;;18.90;91.90;;;;;;6243785;23;20270;-74
2021/08/01 11:49:31;;;;;;;5.80;3.63;;;18.20;93.40;;;;;;6244178;23;20071;-73
2021/08/01 11:51:59;;;;;;;8.40;4.20;;;18.20;94.50;;;;;;6242170;23;20102;-73
2021/08/01 11:54:26;;;;;;;6.15;3.35;;;18.70;93.80;;;;;;6247538;23;20008;-73
2021/08/01 11:56:55;;;;;;;6.78;4.00;;;19.10;91.70;;;;;;6247807;23;20008;-73
2021/08/01 11:59:21;;;;;;;6.38;4.13;;;19.40;91.20;;;;;;6244658;23;20237;-73
2021/08/01 12:01:49;;;;;;;6.80;3.47;;;19.70;89.90;;;;;;6247434;23;20379;-73
2021/08/01 12:04:14;;;;;;;6.38;3.50;;;19.80;89.20;;;;;;6247543;23;20039;-73
2021/08/01 12:06:41;;;;;;;8.48;3.78;;;19.90;89.20;;;;;;6247307;23;20006;-73
2021/08/01 12:09:23;;;;;;;7.50;3.80;;;19.70;88.00;;;;;;6248200;23;20103;-73
2021/08/01 12:11:54;;;;;;;6.47;3.78;;;19.80;90.40;;;;;;6247812;23;20042;-73
2021/08/01 12:14:24;;;;;;;6.72;3.30;;;19.60;89.80;;;;;;6245947;23;20058;-73
2021/08/01 12:17:16;;;;;;;7.32;3.90;;;19.60;89.20;;;;;;6221106;23;20008;-73
2021/08/01 12:19:45;;;;;;;6.93;3.92;;;19.30;88.90;;;;;;6241316;23;20031;-73
2021/08/01 12:22:13;;;;;;;5.70;3.58;;;18.90;90.80;;;;;;6247448;23;20278;-73
2021/08/01 12:24:46;;;;;;;6.55;3.35;;;18.90;90.30;;;;;;6220596;23;20061;-73
2021/08/01 12:27:17;;;;;;;5.65;3.42;;;19.50;91.50;;;;;;6247629;23;20008;-73
2021/08/01 12:30:17;;;;;;;4.38;2.25;;;20.60;87.10;;;;;;6245326;23;20004;-72
2021/08/01 12:32:47;;;;;;;4.43;2.50;;;21.60;81.20;;;;;;6247187;23;19996;-72
2021/08/01 12:35:18;;;;;;;8.20;2.33;;;21.90;79.50;;;;;;6247798;23;19996;-72
2021/08/01 12:37:59;;;;;;;4.40;2.50;;;21.30;79.90;;;;;;6247275;23;20278;-71
2021/08/01 12:40:44;;;;;;;7.47;2.40;;;21.20;81.30;;;;;;6246900;23;20007;-72
2021/08/01 12:43:16;;;;;;;4.63;2.22;;;21.20;81.10;;;;;;6247216;23;20072;-73
2021/08/01 12:45:43;;;;;;;6.00;2.40;;;21.90;78.40;;;;;;6245844;23;20015;-73
2021/08/01 12:48:16;;;;;;;5.88;2.53;;;22.60;77.50;;;;;;6247253;23;20004;-73
2021/08/01 12:50:51;;;;;;;4.13;2.08;;;23.60;75.00;;;;;;6246514;23;20318;-73
2021/08/01 12:53:20;;;;;;;10.95;2.40;;;23.30;75.40;;;;;;6247596;23;20004;-73
2021/08/01 12:55:52;;;;;;;5.15;2.50;;;23.00;77.40;;;;;;6247629;23;20008;-73